FLI459 ENBR-EKVG
Flight info
| Callsign | FLI459 |
|---|---|
| Flight time | 1h 8m |
| Altitude | 38000 |
| Route | REKLI DCT VALDI/M078F380 DCT ROBUR |
| Aircraft | A320/M-SDE3FGHIRWY/LB1 |
Departure
| Time | 2026-04-27 17:04 |
|---|---|
| Airport | Bergen Airport, Flesland (ENBR) |
Arrival
| Time | 2026-04-27 18:13 |
|---|---|
| Airport | Vágar Airport (EKVG) |
| Time | Latitude | Longitude | Altitude | Speed | Heading |
|---|---|---|---|---|---|
| 2026-04-27 16:53 | 60.28932 | 5.22547 | 175 ft | 0 kts | 108° |
| 2026-04-27 16:58 | 60.28936 | 5.22519 | 175 ft | 4 kts | 109° |
| 2026-04-27 16:58 | 60.28945 | 5.22468 | 175 ft | 4 kts | 114° |
| 2026-04-27 16:58 | 60.28958 | 5.22421 | 175 ft | 4 kts | 131° |
| 2026-04-27 16:58 | 60.28965 | 5.22408 | 175 ft | 0 kts | 138° |
| 2026-04-27 17:00 | 60.28964 | 5.22408 | 175 ft | 1 kts | 146° |
| 2026-04-27 17:00 | 60.28958 | 5.22395 | 175 ft | 3 kts | 224° |
| 2026-04-27 17:01 | 60.28905 | 5.22302 | 172 ft | 13 kts | 196° |
| 2026-04-27 17:01 | 60.28813 | 5.22314 | 170 ft | 13 kts | 172° |
| 2026-04-27 17:01 | 60.28721 | 5.22341 | 168 ft | 14 kts | 171° |
| 2026-04-27 17:01 | 60.28626 | 5.22372 | 166 ft | 14 kts | 171° |
| 2026-04-27 17:02 | 60.28529 | 5.22404 | 164 ft | 14 kts | 171° |
| 2026-04-27 17:02 | 60.28426 | 5.22436 | 162 ft | 15 kts | 171° |
| 2026-04-27 17:02 | 60.28320 | 5.22467 | 158 ft | 12 kts | 180° |
| 2026-04-27 17:02 | 60.28281 | 5.22328 | 155 ft | 14 kts | 271° |
| 2026-04-27 17:03 | 60.28330 | 5.22156 | 155 ft | 16 kts | 347° |
| 2026-04-27 17:03 | 60.28363 | 5.22144 | 156 ft | 9 kts | 349° |
| 2026-04-27 17:03 | 60.28700 | 5.22027 | 162 ft | 87 kts | 350° |
| 2026-04-27 17:03 | 60.29509 | 5.21742 | 167 ft | 145 kts | 349° |
| 2026-04-27 17:04 | 60.30529 | 5.21403 | 690 ft | 155 kts | 348° |
| 2026-04-27 17:04 | 60.31612 | 5.21030 | 1381 ft | 159 kts | 350° |
| 2026-04-27 17:04 | 60.32703 | 5.20664 | 2083 ft | 163 kts | 350° |
| 2026-04-27 17:04 | 60.33896 | 5.20267 | 2488 ft | 185 kts | 351° |
| 2026-04-27 17:05 | 60.35243 | 5.19823 | 2875 ft | 207 kts | 351° |
| 2026-04-27 17:05 | 60.36737 | 5.19328 | 3307 ft | 228 kts | 351° |
| 2026-04-27 17:05 | 60.38354 | 5.18788 | 3963 ft | 240 kts | 351° |
| 2026-04-27 17:05 | 60.39460 | 5.18413 | 4433 ft | 250 kts | 351° |
| 2026-04-27 17:06 | 60.41837 | 5.17606 | 5520 ft | 263 kts | 351° |
| 2026-04-27 17:06 | 60.43652 | 5.16990 | 6533 ft | 266 kts | 350° |
| 2026-04-27 17:06 | 60.45407 | 5.15799 | 7513 ft | 269 kts | 330° |
| 2026-04-27 17:06 | 60.46787 | 5.13224 | 8450 ft | 275 kts | 304° |
| 2026-04-27 17:07 | 60.47481 | 5.09607 | 9338 ft | 282 kts | 278° |
| 2026-04-27 17:07 | 60.47493 | 5.05597 | 10266 ft | 286 kts | 270° |
| 2026-04-27 17:07 | 60.47436 | 5.01483 | 10846 ft | 302 kts | 270° |
| 2026-04-27 17:07 | 60.47384 | 4.97069 | 11242 ft | 321 kts | 270° |
| 2026-04-27 17:08 | 60.47333 | 4.92489 | 11970 ft | 328 kts | 270° |
| 2026-04-27 17:08 | 60.47280 | 4.87826 | 12774 ft | 333 kts | 270° |
| 2026-04-27 17:08 | 60.47225 | 4.83111 | 13591 ft | 337 kts | 270° |
| 2026-04-27 17:08 | 60.47168 | 4.78397 | 14360 ft | 341 kts | 271° |
| 2026-04-27 17:09 | 60.47386 | 4.73624 | 15043 ft | 341 kts | 287° |
| 2026-04-27 17:09 | 60.48149 | 4.69046 | 15737 ft | 344 kts | 291° |
| 2026-04-27 17:09 | 60.48960 | 4.64459 | 16456 ft | 347 kts | 291° |
| 2026-04-27 17:09 | 60.49780 | 4.59841 | 17170 ft | 350 kts | 292° |
| 2026-04-27 17:10 | 60.50608 | 4.55178 | 17898 ft | 353 kts | 292° |
| 2026-04-27 17:10 | 60.51443 | 4.50475 | 18599 ft | 356 kts | 292° |
| 2026-04-27 17:10 | 60.52281 | 4.45725 | 19213 ft | 359 kts | 292° |
| 2026-04-27 17:10 | 60.53121 | 4.40929 | 19815 ft | 362 kts | 292° |
| 2026-04-27 17:11 | 60.53964 | 4.36095 | 20419 ft | 365 kts | 292° |
| 2026-04-27 17:11 | 60.55658 | 4.26360 | 21621 ft | 371 kts | 292° |
| 2026-04-27 17:11 | 60.56519 | 4.21393 | 22220 ft | 374 kts | 292° |
| 2026-04-27 17:12 | 60.58255 | 4.11337 | 23423 ft | 380 kts | 292° |
| 2026-04-27 17:12 | 60.59134 | 4.06242 | 23976 ft | 383 kts | 292° |
| 2026-04-27 17:12 | 60.60016 | 4.01097 | 24443 ft | 387 kts | 292° |
| 2026-04-27 17:13 | 60.60901 | 3.95911 | 24925 ft | 389 kts | 292° |
| 2026-04-27 17:13 | 60.61791 | 3.90689 | 25398 ft | 392 kts | 292° |
| 2026-04-27 17:13 | 60.62688 | 3.85421 | 25863 ft | 394 kts | 292° |
| 2026-04-27 17:13 | 60.63586 | 3.80115 | 26300 ft | 397 kts | 292° |
| 2026-04-27 17:14 | 60.64485 | 3.74789 | 26742 ft | 399 kts | 292° |
| 2026-04-27 17:14 | 60.65390 | 3.69429 | 27180 ft | 401 kts | 292° |
| 2026-04-27 17:14 | 60.66301 | 3.64035 | 27614 ft | 403 kts | 292° |
| 2026-04-27 17:14 | 60.67211 | 3.58612 | 28027 ft | 406 kts | 292° |
| 2026-04-27 17:15 | 60.68122 | 3.53148 | 28448 ft | 408 kts | 292° |
| 2026-04-27 17:15 | 60.69037 | 3.47651 | 28853 ft | 410 kts | 292° |
| 2026-04-27 17:15 | 60.69954 | 3.42121 | 29247 ft | 413 kts | 292° |
| 2026-04-27 17:15 | 60.70875 | 3.36553 | 29619 ft | 415 kts | 293° |
| 2026-04-27 17:16 | 60.71796 | 3.30961 | 30063 ft | 415 kts | 293° |
| 2026-04-27 17:16 | 60.72715 | 3.25361 | 30462 ft | 417 kts | 293° |
| 2026-04-27 17:16 | 60.73639 | 3.19729 | 30787 ft | 419 kts | 294° |
| 2026-04-27 17:16 | 60.74566 | 3.14072 | 31088 ft | 420 kts | 294° |
| 2026-04-27 17:17 | 60.75495 | 3.08394 | 31382 ft | 422 kts | 294° |
| 2026-04-27 17:17 | 60.76426 | 3.02685 | 31671 ft | 424 kts | 294° |
| 2026-04-27 17:17 | 60.77344 | 2.97023 | 31952 ft | 425 kts | 294° |
| 2026-04-27 17:18 | 60.79195 | 2.85521 | 32683 ft | 424 kts | 294° |
| 2026-04-27 17:18 | 60.80114 | 2.79785 | 33078 ft | 423 kts | 294° |
| 2026-04-27 17:18 | 60.81024 | 2.74069 | 33472 ft | 422 kts | 294° |
| 2026-04-27 17:18 | 60.81933 | 2.68363 | 33840 ft | 420 kts | 296° |
| 2026-04-27 17:19 | 60.82835 | 2.62687 | 34253 ft | 419 kts | 296° |
| 2026-04-27 17:19 | 60.83731 | 2.57016 | 34630 ft | 417 kts | 296° |
| 2026-04-27 17:19 | 60.84622 | 2.51364 | 34942 ft | 417 kts | 296° |
| 2026-04-27 17:19 | 60.85512 | 2.45706 | 35221 ft | 417 kts | 295° |
| 2026-04-27 17:20 | 60.86400 | 2.40048 | 35491 ft | 417 kts | 295° |
| 2026-04-27 17:20 | 60.87287 | 2.34391 | 35751 ft | 417 kts | 295° |
| 2026-04-27 17:20 | 60.88176 | 2.28716 | 36008 ft | 417 kts | 295° |
| 2026-04-27 17:20 | 60.89060 | 2.23037 | 36257 ft | 417 kts | 294° |
| 2026-04-27 17:21 | 60.89940 | 2.17354 | 36506 ft | 418 kts | 294° |
| 2026-04-27 17:21 | 60.90818 | 2.11665 | 36747 ft | 418 kts | 294° |
| 2026-04-27 17:21 | 60.91692 | 2.05970 | 36957 ft | 418 kts | 294° |
| 2026-04-27 17:21 | 60.92566 | 2.00280 | 37218 ft | 417 kts | 294° |
| 2026-04-27 17:22 | 60.93436 | 1.94590 | 37474 ft | 417 kts | 294° |
| 2026-04-27 17:22 | 60.94302 | 1.88900 | 37701 ft | 417 kts | 294° |
| 2026-04-27 17:22 | 60.95163 | 1.83202 | 37921 ft | 417 kts | 293° |
| 2026-04-27 17:22 | 60.96024 | 1.77503 | 38132 ft | 417 kts | 293° |
| 2026-04-27 17:23 | 60.96880 | 1.71805 | 38348 ft | 417 kts | 293° |
| 2026-04-27 17:23 | 60.97740 | 1.66086 | 38431 ft | 417 kts | 292° |
| 2026-04-27 17:23 | 60.99447 | 1.54666 | 38434 ft | 417 kts | 292° |
| 2026-04-27 17:24 | 61.00859 | 1.45184 | 38434 ft | 416 kts | 292° |
| 2026-04-27 17:24 | 61.02546 | 1.33769 | 38424 ft | 416 kts | 292° |
| 2026-04-27 17:25 | 61.04216 | 1.22357 | 38433 ft | 414 kts | 292° |
| 2026-04-27 17:25 | 61.05862 | 1.11023 | 38437 ft | 412 kts | 292° |
| 2026-04-27 17:26 | 61.07505 | 0.99702 | 38429 ft | 412 kts | 292° |
| 2026-04-27 17:26 | 61.09133 | 0.88364 | 38435 ft | 412 kts | 292° |
| 2026-04-27 17:27 | 61.10754 | 0.77010 | 38434 ft | 412 kts | 292° |
| 2026-04-27 17:27 | 61.12354 | 0.65714 | 38409 ft | 411 kts | 292° |
| 2026-04-27 17:28 | 61.13951 | 0.54357 | 38425 ft | 410 kts | 292° |
| 2026-04-27 17:29 | 61.16319 | 0.37349 | 38434 ft | 409 kts | 292° |
| 2026-04-27 17:29 | 61.17894 | 0.26027 | 38431 ft | 408 kts | 292° |
| 2026-04-27 17:30 | 61.19449 | 0.14708 | 38428 ft | 408 kts | 292° |
| 2026-04-27 17:30 | 61.21746 | -0.02276 | 38383 ft | 408 kts | 291° |
| 2026-04-27 17:31 | 61.23217 | -0.13648 | 38397 ft | 407 kts | 291° |
| 2026-04-27 17:31 | 61.24680 | -0.25013 | 38402 ft | 407 kts | 291° |
| 2026-04-27 17:32 | 61.26858 | -0.41987 | 38413 ft | 409 kts | 288° |
| 2026-04-27 17:33 | 61.27928 | -0.53630 | 38413 ft | 411 kts | 286° |
| 2026-04-27 17:33 | 61.28942 | -0.65312 | 38409 ft | 408 kts | 289° |
| 2026-04-27 17:34 | 61.30312 | -0.76738 | 38412 ft | 406 kts | 291° |
| 2026-04-27 17:34 | 61.31791 | -0.88071 | 38404 ft | 406 kts | 291° |
| 2026-04-27 17:35 | 61.33220 | -0.99364 | 38399 ft | 406 kts | 291° |
| 2026-04-27 17:35 | 61.34604 | -1.10775 | 38404 ft | 407 kts | 290° |
| 2026-04-27 17:36 | 61.35968 | -1.22208 | 38400 ft | 406 kts | 290° |
| 2026-04-27 17:36 | 61.37323 | -1.33640 | 38401 ft | 406 kts | 290° |
| 2026-04-27 17:37 | 61.38683 | -1.45089 | 38369 ft | 406 kts | 290° |
| 2026-04-27 17:37 | 61.40030 | -1.56539 | 38383 ft | 406 kts | 290° |
| 2026-04-27 17:38 | 61.41367 | -1.68002 | 38389 ft | 407 kts | 290° |
| 2026-04-27 17:38 | 61.42692 | -1.79488 | 38394 ft | 407 kts | 289° |
| 2026-04-27 17:39 | 61.44021 | -1.91044 | 38391 ft | 413 kts | 289° |
| 2026-04-27 17:39 | 61.45370 | -2.02845 | 38387 ft | 422 kts | 289° |
| 2026-04-27 17:40 | 61.46717 | -2.14801 | 38374 ft | 427 kts | 289° |
| 2026-04-27 17:40 | 61.48069 | -2.26987 | 38385 ft | 432 kts | 289° |
| 2026-04-27 17:41 | 61.49429 | -2.39244 | 38383 ft | 433 kts | 289° |
| 2026-04-27 17:41 | 61.50786 | -2.51524 | 38389 ft | 433 kts | 289° |
| 2026-04-27 17:42 | 61.52125 | -2.63835 | 38387 ft | 434 kts | 288° |
| 2026-04-27 17:42 | 61.53445 | -2.76193 | 38391 ft | 434 kts | 288° |
| 2026-04-27 17:43 | 61.54759 | -2.88550 | 38379 ft | 434 kts | 288° |
| 2026-04-27 17:43 | 61.56066 | -3.00816 | 38392 ft | 434 kts | 288° |
| 2026-04-27 17:44 | 61.57369 | -3.13179 | 38394 ft | 434 kts | 288° |
| 2026-04-27 17:44 | 61.58652 | -3.25547 | 38398 ft | 434 kts | 288° |
| 2026-04-27 17:45 | 61.59918 | -3.37924 | 38399 ft | 433 kts | 288° |
| 2026-04-27 17:45 | 61.61172 | -3.50281 | 38378 ft | 428 kts | 288° |
| 2026-04-27 17:45 | 61.61773 | -3.56283 | 38354 ft | 413 kts | 288° |
| 2026-04-27 17:46 | 61.62358 | -3.62135 | 38378 ft | 406 kts | 288° |
| 2026-04-27 17:46 | 61.63522 | -3.73714 | 38382 ft | 404 kts | 288° |
| 2026-04-27 17:47 | 61.64683 | -3.85324 | 37474 ft | 410 kts | 288° |
| 2026-04-27 17:47 | 61.65067 | -3.89215 | 37007 ft | 409 kts | 288° |
| 2026-04-27 17:47 | 61.65817 | -3.96948 | 36215 ft | 405 kts | 288° |
| 2026-04-27 17:47 | 61.66384 | -4.02805 | 35257 ft | 411 kts | 288° |
| 2026-04-27 17:48 | 61.66957 | -4.08690 | 34592 ft | 409 kts | 288° |
| 2026-04-27 17:48 | 61.67520 | -4.14528 | 33983 ft | 405 kts | 288° |
| 2026-04-27 17:48 | 61.68073 | -4.20310 | 33322 ft | 401 kts | 288° |
| 2026-04-27 17:48 | 61.68623 | -4.26051 | 32699 ft | 398 kts | 287° |
| 2026-04-27 17:49 | 61.69163 | -4.31720 | 32254 ft | 391 kts | 287° |
| 2026-04-27 17:49 | 61.69691 | -4.37296 | 31791 ft | 385 kts | 287° |
| 2026-04-27 17:49 | 61.70209 | -4.42802 | 31338 ft | 380 kts | 286° |
| 2026-04-27 17:49 | 61.70717 | -4.48243 | 30897 ft | 376 kts | 286° |
| 2026-04-27 17:50 | 61.71219 | -4.53622 | 30460 ft | 372 kts | 286° |
| 2026-04-27 17:50 | 61.72203 | -4.64178 | 29584 ft | 362 kts | 286° |
| 2026-04-27 17:50 | 61.72676 | -4.69273 | 29161 ft | 357 kts | 286° |
| 2026-04-27 17:51 | 61.73155 | -4.74457 | 28415 ft | 361 kts | 285° |
| 2026-04-27 17:51 | 61.73628 | -4.79618 | 28026 ft | 356 kts | 285° |
| 2026-04-27 17:51 | 61.74090 | -4.84716 | 27632 ft | 351 kts | 285° |
| 2026-04-27 17:51 | 61.74543 | -4.89739 | 27249 ft | 346 kts | 285° |
| 2026-04-27 17:52 | 61.74991 | -4.94699 | 26834 ft | 342 kts | 285° |
| 2026-04-27 17:52 | 61.75431 | -4.99607 | 26422 ft | 338 kts | 284° |
| 2026-04-27 17:52 | 61.75864 | -5.04462 | 26025 ft | 334 kts | 284° |
| 2026-04-27 17:52 | 61.76291 | -5.09259 | 25624 ft | 331 kts | 284° |
| 2026-04-27 17:53 | 61.76712 | -5.14013 | 25214 ft | 328 kts | 284° |
| 2026-04-27 17:53 | 61.77130 | -5.18719 | 24799 ft | 325 kts | 284° |
| 2026-04-27 17:53 | 61.77541 | -5.23402 | 24376 ft | 323 kts | 283° |
| 2026-04-27 17:53 | 61.77948 | -5.28050 | 23967 ft | 321 kts | 283° |
| 2026-04-27 17:54 | 61.78349 | -5.32677 | 23493 ft | 319 kts | 283° |
| 2026-04-27 17:54 | 61.78745 | -5.37260 | 23084 ft | 315 kts | 283° |
| 2026-04-27 17:54 | 61.79135 | -5.41802 | 22678 ft | 312 kts | 283° |
| 2026-04-27 17:54 | 61.79520 | -5.46294 | 22271 ft | 309 kts | 283° |
| 2026-04-27 17:55 | 61.79904 | -5.50748 | 21884 ft | 307 kts | 283° |
| 2026-04-27 17:55 | 61.80282 | -5.55167 | 21495 ft | 304 kts | 283° |
| 2026-04-27 17:55 | 61.80655 | -5.59531 | 21122 ft | 302 kts | 283° |
| 2026-04-27 17:55 | 61.81026 | -5.63888 | 20739 ft | 300 kts | 283° |
| 2026-04-27 17:56 | 61.81394 | -5.68218 | 20358 ft | 298 kts | 283° |
| 2026-04-27 17:56 | 61.81752 | -5.72473 | 19976 ft | 296 kts | 283° |
| 2026-04-27 17:56 | 61.82109 | -5.76748 | 19618 ft | 294 kts | 283° |
| 2026-04-27 17:56 | 61.82465 | -5.81008 | 19256 ft | 293 kts | 283° |
| 2026-04-27 17:57 | 61.82817 | -5.85246 | 18894 ft | 292 kts | 283° |
| 2026-04-27 17:57 | 61.83163 | -5.89471 | 18516 ft | 291 kts | 283° |
| 2026-04-27 17:57 | 61.83508 | -5.93676 | 18131 ft | 289 kts | 283° |
| 2026-04-27 17:57 | 61.83855 | -5.97854 | 17775 ft | 287 kts | 282° |
| 2026-04-27 17:58 | 61.84196 | -6.02000 | 17421 ft | 285 kts | 282° |
| 2026-04-27 17:58 | 61.84531 | -6.06119 | 17078 ft | 283 kts | 282° |
| 2026-04-27 17:58 | 61.84862 | -6.10215 | 16740 ft | 281 kts | 282° |
| 2026-04-27 17:58 | 61.85190 | -6.14286 | 16398 ft | 280 kts | 282° |
| 2026-04-27 17:59 | 61.85517 | -6.18338 | 16066 ft | 279 kts | 282° |
| 2026-04-27 17:59 | 61.85843 | -6.22371 | 15734 ft | 277 kts | 282° |
| 2026-04-27 17:59 | 61.86168 | -6.26393 | 15402 ft | 276 kts | 282° |
| 2026-04-27 17:59 | 61.86490 | -6.30407 | 15079 ft | 276 kts | 282° |
| 2026-04-27 18:00 | 61.86808 | -6.34398 | 14750 ft | 275 kts | 282° |
| 2026-04-27 18:00 | 61.87123 | -6.38384 | 14425 ft | 274 kts | 281° |
| 2026-04-27 18:00 | 61.87434 | -6.42369 | 14089 ft | 273 kts | 281° |
| 2026-04-27 18:00 | 61.87742 | -6.46341 | 13720 ft | 272 kts | 281° |
| 2026-04-27 18:01 | 61.88046 | -6.50276 | 13405 ft | 270 kts | 281° |
| 2026-04-27 18:01 | 61.88348 | -6.54186 | 13060 ft | 268 kts | 281° |
| 2026-04-27 18:01 | 61.88687 | -6.58059 | 12707 ft | 266 kts | 287° |
| 2026-04-27 18:01 | 61.89259 | -6.61781 | 12359 ft | 265 kts | 290° |
| 2026-04-27 18:02 | 61.89829 | -6.65426 | 12019 ft | 264 kts | 289° |
| 2026-04-27 18:02 | 61.90402 | -6.69118 | 11665 ft | 263 kts | 289° |
| 2026-04-27 18:02 | 61.90969 | -6.72799 | 11319 ft | 262 kts | 289° |
| 2026-04-27 18:02 | 61.91532 | -6.76472 | 10957 ft | 262 kts | 289° |
| 2026-04-27 18:03 | 61.92096 | -6.80144 | 10596 ft | 261 kts | 289° |
| 2026-04-27 18:03 | 61.92658 | -6.83812 | 10234 ft | 261 kts | 289° |
| 2026-04-27 18:03 | 61.93217 | -6.87469 | 9834 ft | 260 kts | 289° |
| 2026-04-27 18:03 | 61.93772 | -6.91111 | 9467 ft | 258 kts | 289° |
| 2026-04-27 18:04 | 61.94321 | -6.94726 | 9093 ft | 256 kts | 288° |
| 2026-04-27 18:04 | 61.94864 | -6.98317 | 8717 ft | 254 kts | 288° |
| 2026-04-27 18:04 | 61.95402 | -7.01880 | 8349 ft | 252 kts | 288° |
| 2026-04-27 18:04 | 61.95938 | -7.05420 | 7960 ft | 251 kts | 288° |
| 2026-04-27 18:05 | 61.96472 | -7.08935 | 7586 ft | 249 kts | 288° |
| 2026-04-27 18:05 | 61.97002 | -7.12433 | 7201 ft | 248 kts | 288° |
| 2026-04-27 18:05 | 61.97528 | -7.15921 | 6813 ft | 247 kts | 287° |
| 2026-04-27 18:05 | 61.98048 | -7.19395 | 6401 ft | 246 kts | 287° |
| 2026-04-27 18:06 | 61.98563 | -7.22853 | 5993 ft | 245 kts | 287° |
| 2026-04-27 18:06 | 61.99069 | -7.26271 | 5734 ft | 236 kts | 287° |
| 2026-04-27 18:06 | 61.99547 | -7.29490 | 5445 ft | 223 kts | 287° |
| 2026-04-27 18:06 | 62.00014 | -7.32632 | 5286 ft | 223 kts | 287° |
| 2026-04-27 18:07 | 62.00481 | -7.35779 | 5167 ft | 223 kts | 287° |
| 2026-04-27 18:07 | 62.00946 | -7.38925 | 5060 ft | 223 kts | 286° |
| 2026-04-27 18:07 | 62.01407 | -7.42032 | 4961 ft | 223 kts | 286° |
| 2026-04-27 18:07 | 62.01871 | -7.45176 | 4856 ft | 222 kts | 286° |
| 2026-04-27 18:08 | 62.02328 | -7.48279 | 4768 ft | 212 kts | 286° |
| 2026-04-27 18:08 | 62.02788 | -7.51166 | 4595 ft | 206 kts | 292° |
| 2026-04-27 18:08 | 62.03590 | -7.53678 | 4199 ft | 201 kts | 311° |
| 2026-04-27 18:08 | 62.04664 | -7.55396 | 4068 ft | 185 kts | 327° |
| 2026-04-27 18:09 | 62.05833 | -7.56196 | 3977 ft | 171 kts | 348° |
| 2026-04-27 18:09 | 62.07047 | -7.56066 | 3382 ft | 187 kts | 11° |
| 2026-04-27 18:09 | 62.08187 | -7.54832 | 3080 ft | 176 kts | 37° |
| 2026-04-27 18:09 | 62.08956 | -7.52992 | 2903 ft | 164 kts | 59° |
| 2026-04-27 18:10 | 62.09363 | -7.50800 | 2684 ft | 156 kts | 82° |
| 2026-04-27 18:10 | 62.09401 | -7.48539 | 2500 ft | 150 kts | 103° |
| 2026-04-27 18:10 | 62.09158 | -7.46416 | 2262 ft | 147 kts | 111° |
| 2026-04-27 18:10 | 62.08894 | -7.44323 | 1983 ft | 145 kts | 110° |
| 2026-04-27 18:11 | 62.08636 | -7.42249 | 1755 ft | 144 kts | 110° |
| 2026-04-27 18:11 | 62.08378 | -7.40191 | 1535 ft | 143 kts | 110° |
| 2026-04-27 18:11 | 62.08125 | -7.38146 | 1315 ft | 141 kts | 111° |
| 2026-04-27 18:11 | 62.07877 | -7.36150 | 1085 ft | 137 kts | 110° |
| 2026-04-27 18:12 | 62.07633 | -7.34202 | 869 ft | 133 kts | 112° |
| 2026-04-27 18:12 | 62.07392 | -7.32313 | 678 ft | 134 kts | 110° |
| 2026-04-27 18:12 | 62.07066 | -7.30485 | 395 ft | 130 kts | 118° |
| 2026-04-27 18:12 | 62.06649 | -7.28918 | 275 ft | 106 kts | 120° |
| 2026-04-27 18:13 | 62.06523 | -7.28411 | 279 ft | 12 kts | 82° |
| 2026-04-27 18:13 | 62.06497 | -7.28160 | 284 ft | 18 kts | 50° |
| 2026-04-27 18:13 | 62.06605 | -7.28088 | 278 ft | 8 kts | 4° |
| 2026-04-27 18:13 | 62.06606 | -7.28088 | 279 ft | 0 kts | 4° |
| 2026-04-27 18:14 | 62.06630 | -7.28093 | 279 ft | 14 kts | 350° |
| 2026-04-27 18:14 | 62.06698 | -7.28074 | 279 ft | 5 kts | 27° |
| 2026-04-27 18:14 | 62.06712 | -7.28037 | 279 ft | 0 kts | 69° |
| 2026-04-27 18:14 | 62.06712 | -7.28032 | 279 ft | 0 kts | 84° |